createdAt,value
2022-12-20T00:02:12.512Z,5.90
2022-12-20T00:05:54.992Z,6.07
2022-12-20T00:09:37.659Z,8.05
2022-12-20T00:13:19.623Z,9.45
2022-12-20T00:17:01.652Z,6.22
2022-12-20T00:20:43.626Z,9.13
2022-12-20T00:24:26.582Z,9.13
2022-12-20T00:28:08.634Z,8.85
2022-12-20T00:31:50.596Z,5.30
2022-12-20T00:35:32.604Z,7.18
2022-12-20T00:39:14.608Z,5.95
2022-12-20T00:42:56.659Z,3.95
2022-12-20T00:46:38.628Z,2.47
2022-12-20T00:50:20.641Z,3.17
2022-12-20T00:54:02.526Z,3.55
2022-12-20T00:57:44.501Z,3.63
2022-12-20T01:01:30.440Z,4.13
2022-12-20T01:05:12.614Z,7.22
2022-12-20T01:08:55.279Z,8.70
2022-12-20T01:12:37.248Z,10.95
2022-12-20T01:16:23.508Z,7.82
2022-12-20T01:20:06.687Z,9.43
2022-12-20T01:23:48.797Z,6.97
2022-12-20T01:27:31.025Z,7.22
2022-12-20T01:31:16.425Z,7.35
2022-12-20T01:34:58.410Z,9.48
2022-12-20T01:38:40.676Z,11.80
2022-12-20T01:42:22.704Z,10.82
2022-12-20T01:46:04.648Z,10.25
2022-12-20T01:49:49.702Z,12.30
2022-12-20T01:53:32.294Z,10.52
2022-12-20T01:57:31.679Z,11.75
2022-12-20T02:01:13.659Z,8.60
2022-12-20T02:04:55.871Z,8.80
2022-12-20T02:08:37.817Z,3.45
2022-12-20T02:12:29.414Z,4.95
2022-12-20T02:16:19.847Z,5.22
2022-12-20T02:20:57.284Z,3.53
2022-12-20T02:25:13.941Z,3.13
2022-12-20T02:29:20.427Z,3.63
2022-12-20T02:33:08.939Z,3.83
2022-12-20T02:36:51.565Z,2.10
2022-12-20T02:40:40.153Z,3.10
2022-12-20T02:44:44.675Z,2.40
2022-12-20T02:48:30.632Z,2.83
2022-12-20T02:52:14.368Z,2.60
2022-12-20T02:56:09.774Z,3.28
2022-12-20T03:00:15.737Z,2.92
2022-12-20T03:03:58.965Z,4.15
2022-12-20T03:07:40.951Z,1.00
2022-12-20T03:11:23.177Z,0.28
2022-12-20T03:15:05.724Z,0.00
2022-12-20T03:18:48.215Z,0.38
2022-12-20T03:22:30.940Z,0.05
2022-12-20T03:26:12.840Z,0.10
2022-12-20T03:29:55.320Z,0.00
2022-12-20T03:33:37.287Z,0.15
2022-12-20T03:37:19.283Z,0.10
2022-12-20T03:41:01.212Z,0.10
2022-12-20T03:44:43.325Z,0.10
2022-12-20T03:48:25.295Z,0.50
2022-12-20T03:52:16.149Z,1.75
2022-12-20T03:55:58.317Z,0.20
2022-12-20T03:59:40.382Z,0.82
2022-12-20T04:03:22.337Z,0.10
2022-12-20T04:07:04.556Z,0.32
2022-12-20T04:11:05.106Z,0.45
2022-12-20T04:14:47.117Z,0.10
2022-12-20T04:18:29.053Z,1.02
2022-12-20T04:22:11.101Z,0.80
2022-12-20T04:25:53.042Z,0.77
2022-12-20T04:29:35.095Z,0.63
2022-12-20T04:33:17.968Z,0.52
2022-12-20T04:36:59.994Z,1.98
2022-12-20T04:40:42.349Z,1.55
2022-12-20T04:44:24.315Z,0.10
2022-12-20T04:48:36.872Z,0.30
2022-12-20T04:52:28.205Z,0.25
2022-12-20T04:56:10.333Z,0.95
2022-12-20T04:59:52.280Z,0.47
2022-12-20T05:03:34.309Z,1.42
2022-12-20T05:07:16.274Z,0.98
2022-12-20T05:10:58.242Z,1.20
2022-12-20T05:14:40.199Z,1.20
2022-12-20T05:18:22.514Z,1.20
2022-12-20T05:22:22.970Z,2.13
2022-12-20T05:26:19.905Z,1.40
2022-12-20T05:30:01.937Z,1.77
2022-12-20T05:33:43.909Z,3.38
2022-12-20T05:37:25.964Z,5.30
2022-12-20T05:41:08.610Z,2.65
2022-12-20T05:44:51.663Z,4.43
2022-12-20T05:48:34.198Z,1.50
2022-12-20T05:52:16.239Z,2.83
2022-12-20T05:55:59.012Z,2.95
2022-12-20T05:59:41.346Z,5.38
2022-12-20T06:03:23.658Z,5.38
2022-12-20T06:07:06.207Z,3.50
2022-12-20T06:10:48.900Z,4.50
2022-12-20T06:14:31.127Z,3.67
2022-12-20T06:18:13.892Z,6.03
2022-12-20T06:21:55.894Z,4.07
2022-12-20T06:25:39.710Z,4.18
2022-12-20T06:29:21.732Z,4.75
2022-12-20T06:33:04.214Z,4.20
2022-12-20T06:36:46.927Z,2.22
2022-12-20T06:40:28.869Z,4.63
2022-12-20T06:44:10.890Z,7.32
2022-12-20T06:47:52.813Z,5.30
2022-12-20T06:51:34.847Z,6.70
2022-12-20T06:55:17.517Z,11.50
2022-12-20T06:58:59.540Z,5.78
2022-12-20T07:02:41.737Z,6.15
2022-12-20T07:06:23.863Z,5.43
2022-12-20T07:10:06.824Z,4.55
2022-12-20T07:13:50.380Z,9.05
2022-12-20T07:17:32.427Z,3.88
2022-12-20T07:21:16.917Z,4.07
2022-12-20T07:24:58.859Z,5.70
2022-12-20T07:28:41.452Z,3.47
2022-12-20T07:32:23.501Z,6.07
2022-12-20T07:36:07.969Z,4.95
2022-12-20T07:39:49.938Z,5.38
2022-12-20T07:43:31.999Z,3.50
2022-12-20T07:47:14.017Z,5.40
2022-12-20T07:51:01.366Z,9.80
2022-12-20T07:55:00.778Z,8.38
2022-12-20T07:58:44.456Z,11.98
2022-12-20T08:02:36.371Z,7.38
2022-12-20T08:06:19.665Z,5.72
2022-12-20T08:10:01.682Z,8.63
2022-12-20T08:13:46.519Z,6.25
2022-12-20T08:17:29.470Z,4.80
2022-12-20T08:21:13.271Z,4.50
2022-12-20T08:24:55.487Z,6.53
2022-12-20T08:28:37.865Z,6.10
2022-12-20T08:32:19.883Z,6.85
2022-12-20T08:36:04.629Z,8.18
2022-12-20T08:39:46.624Z,7.25
2022-12-20T08:43:28.616Z,6.78
2022-12-20T08:47:10.608Z,4.65
2022-12-20T08:51:01.593Z,4.78
2022-12-20T08:54:43.599Z,4.07
2022-12-20T08:58:25.577Z,8.45
2022-12-20T09:02:07.620Z,5.93
2022-12-20T09:05:49.870Z,5.97
2022-12-20T09:09:31.874Z,5.40
2022-12-20T09:13:13.892Z,7.03
2022-12-20T09:16:55.888Z,4.13
2022-12-20T09:20:44.524Z,8.13
2022-12-20T09:24:26.703Z,3.72
2022-12-20T09:28:08.699Z,8.55
2022-12-20T09:31:50.680Z,6.72
2022-12-20T09:35:33.712Z,5.20
2022-12-20T09:39:15.677Z,5.78
2022-12-20T09:42:57.778Z,6.20
2022-12-20T09:46:41.216Z,5.90
2022-12-20T09:50:56.498Z,8.57
2022-12-20T09:55:02.842Z,7.30
2022-12-20T09:59:01.913Z,6.07
2022-12-20T10:03:00.182Z,6.53
2022-12-20T10:07:28.266Z,7.13
2022-12-20T10:11:38.653Z,7.00
2022-12-20T10:15:26.719Z,7.80
2022-12-20T10:20:28.512Z,6.65
2022-12-20T10:24:18.923Z,6.13
2022-12-20T10:28:11.350Z,12.13
2022-12-20T10:32:00.984Z,6.60
2022-12-20T10:35:43.451Z,8.20
2022-12-20T10:39:42.311Z,8.82
2022-12-20T10:43:25.175Z,8.73
2022-12-20T10:47:30.988Z,7.30
2022-12-20T10:51:17.652Z,9.98
2022-12-20T10:54:59.739Z,8.73
2022-12-20T10:58:42.341Z,8.50
2022-12-20T11:02:41.209Z,9.25
2022-12-20T11:06:40.151Z,9.02
2022-12-20T11:10:25.553Z,8.43
2022-12-20T11:14:15.861Z,11.70
2022-12-20T11:18:11.414Z,11.95
2022-12-20T11:22:01.989Z,6.57
2022-12-20T11:26:10.994Z,9.82
2022-12-20T11:30:17.812Z,11.75
2022-12-20T11:34:21.476Z,8.80
2022-12-20T11:38:31.015Z,8.60
2022-12-20T11:47:13.629Z,9.60
2022-12-20T11:51:15.180Z,5.75
2022-12-20T11:55:20.769Z,9.68
2022-12-20T12:04:22.764Z,9.00
2022-12-20T12:08:17.934Z,9.52
2022-12-20T12:12:10.367Z,7.40
2022-12-20T12:16:13.001Z,8.25
2022-12-20T12:20:01.259Z,11.80
2022-12-20T12:24:02.056Z,9.68
2022-12-20T12:27:44.339Z,9.80
2022-12-20T12:31:42.509Z,9.65
2022-12-20T12:35:43.962Z,9.90
2022-12-20T12:39:40.837Z,8.93
2022-12-20T12:43:30.742Z,7.72
2022-12-20T12:47:23.752Z,10.13
2022-12-20T12:51:06.830Z,10.10
2022-12-20T12:54:48.891Z,10.02
2022-12-20T12:58:33.129Z,7.55
2022-12-20T13:02:15.727Z,7.22
2022-12-20T13:05:58.095Z,10.57
2022-12-20T13:09:42.349Z,9.60
2022-12-20T13:13:25.202Z,11.07
2022-12-20T13:17:12.826Z,8.73
2022-12-20T13:21:19.552Z,8.77
2022-12-20T13:25:30.384Z,9.60
2022-12-20T13:29:28.100Z,11.82
2022-12-20T13:33:24.447Z,9.95
2022-12-20T13:37:54.380Z,10.65
2022-12-20T13:41:40.174Z,11.82
2022-12-20T13:45:22.665Z,8.25
2022-12-20T13:49:09.110Z,14.13
2022-12-20T13:52:54.707Z,7.85
2022-12-20T13:56:49.505Z,5.85
2022-12-20T14:00:31.576Z,6.97
2022-12-20T14:04:13.713Z,9.60
2022-12-20T14:08:01.140Z,10.88
2022-12-20T14:11:49.268Z,10.73
2022-12-20T14:15:36.704Z,10.20
2022-12-20T14:19:18.664Z,9.82
2022-12-20T14:23:21.015Z,8.00
2022-12-20T14:27:03.165Z,10.73
2022-12-20T14:30:45.489Z,9.35
2022-12-20T14:34:33.077Z,7.30
2022-12-20T14:38:35.280Z,11.40
2022-12-20T14:42:19.485Z,13.18
2022-12-20T14:46:20.786Z,9.18
2022-12-20T14:50:06.299Z,6.78
2022-12-20T14:53:50.435Z,10.50
2022-12-20T14:57:35.352Z,10.85
2022-12-20T15:01:24.951Z,11.60
2022-12-20T15:05:41.032Z,13.90
2022-12-20T15:09:23.094Z,9.35
2022-12-20T15:13:08.520Z,13.48
2022-12-20T15:16:50.582Z,15.70
2022-12-20T15:20:32.610Z,12.98
2022-12-20T15:24:19.854Z,9.52
2022-12-20T15:28:01.899Z,14.02
2022-12-20T15:31:44.980Z,12.63
2022-12-20T15:35:28.662Z,10.48
2022-12-20T15:39:13.940Z,10.57
2022-12-20T15:42:56.612Z,9.30
2022-12-20T15:46:38.705Z,7.95
2022-12-20T15:50:20.702Z,7.50
2022-12-20T15:54:05.544Z,11.32
2022-12-20T15:57:47.591Z,11.32
2022-12-20T16:01:40.465Z,10.85
2022-12-20T16:05:23.143Z,11.52
2022-12-20T16:09:05.587Z,10.95
2022-12-20T16:12:47.601Z,8.15
2022-12-20T16:16:33.637Z,9.80
2022-12-20T16:20:15.815Z,11.48
2022-12-20T16:23:58.319Z,11.15
2022-12-20T16:27:40.295Z,12.13
2022-12-20T16:31:25.610Z,11.77
2022-12-20T16:35:23.600Z,13.02
2022-12-20T16:39:05.641Z,10.68
2022-12-20T16:42:47.595Z,9.13
2022-12-20T16:46:31.685Z,10.85
2022-12-20T16:50:13.922Z,10.50
2022-12-20T16:58:00.232Z,9.57
2022-12-20T17:01:45.378Z,8.18
2022-12-20T17:05:33.542Z,11.02
2022-12-20T17:09:16.444Z,14.00
2022-12-20T17:12:58.724Z,10.75
2022-12-20T17:16:41.404Z,12.70
2022-12-20T17:20:25.038Z,8.05
2022-12-20T17:24:17.167Z,8.30
2022-12-20T17:27:59.173Z,11.30
2022-12-20T17:31:44.323Z,11.55
2022-12-20T17:35:30.645Z,11.32
2022-12-20T17:39:12.943Z,9.88
2022-12-20T17:42:55.577Z,10.30
2022-12-20T17:46:37.550Z,14.68
2022-12-20T17:50:19.926Z,9.95
2022-12-20T17:54:02.512Z,16.50
2022-12-20T17:57:44.638Z,14.80
2022-12-20T18:01:32.214Z,10.70
2022-12-20T18:05:14.523Z,12.95
2022-12-20T18:08:57.549Z,13.63
2022-12-20T18:12:40.284Z,12.23
2022-12-20T18:16:28.793Z,13.68
2022-12-20T18:20:11.654Z,7.43
2022-12-20T18:23:54.840Z,8.60
2022-12-20T18:27:42.207Z,11.48
2022-12-20T18:31:27.138Z,13.85
2022-12-20T18:35:10.262Z,14.38
2022-12-20T18:38:53.072Z,14.93
2022-12-20T18:42:35.057Z,19.17
2022-12-20T18:46:20.425Z,16.45
2022-12-20T18:50:02.383Z,16.50
2022-12-20T18:53:46.258Z,13.65
2022-12-20T18:57:28.215Z,11.77
2022-12-20T19:01:36.737Z,13.40
2022-12-20T19:05:18.990Z,13.07
2022-12-20T19:09:02.239Z,14.60
2022-12-20T19:12:44.284Z,16.08
2022-12-20T19:16:29.526Z,17.13
2022-12-20T19:20:11.615Z,9.68
2022-12-20T19:23:56.332Z,11.85
2022-12-20T19:27:38.291Z,13.07
2022-12-20T19:31:23.906Z,13.88
2022-12-20T19:35:29.793Z,14.63
2022-12-20T19:39:20.599Z,10.75
2022-12-20T19:43:02.731Z,9.60
2022-12-20T19:46:44.947Z,14.10
2022-12-20T19:50:26.983Z,13.13
2022-12-20T19:54:09.711Z,12.48
2022-12-20T19:57:51.637Z,13.30
2022-12-20T20:01:33.735Z,13.23
2022-12-20T20:05:15.794Z,12.95
2022-12-20T20:08:59.736Z,13.43
2022-12-20T20:12:42.000Z,8.85
2022-12-20T20:16:24.124Z,12.95
2022-12-20T20:20:06.816Z,12.10
2022-12-20T20:23:50.652Z,11.23
2022-12-20T20:27:32.616Z,11.90
2022-12-20T20:31:16.168Z,18.25
2022-12-20T20:34:58.290Z,18.90
2022-12-20T20:38:40.343Z,20.35
2022-12-20T20:42:23.647Z,24.83
2022-12-20T20:46:12.253Z,26.45
2022-12-20T20:49:54.317Z,23.23
2022-12-20T20:53:36.706Z,26.05
2022-12-20T20:57:18.782Z,26.48
2022-12-20T21:01:02.728Z,29.02
2022-12-20T21:05:05.721Z,36.58
2022-12-20T21:08:47.016Z,29.63
2022-12-20T21:12:28.959Z,24.25
2022-12-20T21:16:20.543Z,18.02
2022-12-20T21:20:03.827Z,20.30
2022-12-20T21:23:47.310Z,13.07
2022-12-20T21:27:29.311Z,15.95
2022-12-20T21:31:14.671Z,12.57
2022-12-20T21:34:56.707Z,14.15
2022-12-20T21:38:38.678Z,10.75
2022-12-20T21:42:20.659Z,14.15
2022-12-20T21:46:02.731Z,12.20
2022-12-20T21:49:44.673Z,21.35
2022-12-20T21:53:27.049Z,8.80
2022-12-20T21:57:10.490Z,10.95
2022-12-20T22:00:55.209Z,15.07
2022-12-20T22:04:37.438Z,12.45
2022-12-20T22:08:20.423Z,18.08
2022-12-20T22:12:02.420Z,17.25
2022-12-20T22:15:44.400Z,12.63
2022-12-20T22:19:26.336Z,13.43
2022-12-20T22:23:08.287Z,12.23
2022-12-20T22:26:50.252Z,14.55
2022-12-20T22:30:33.204Z,12.45
2022-12-20T22:34:15.474Z,15.55
2022-12-20T22:37:57.502Z,13.63
2022-12-20T22:41:39.467Z,17.83
2022-12-20T22:45:21.429Z,9.48
2022-12-20T22:49:03.787Z,15.07
2022-12-20T22:52:46.151Z,10.82
2022-12-20T22:56:28.293Z,12.93
2022-12-20T23:00:13.239Z,14.32
2022-12-20T23:03:55.261Z,16.58
2022-12-20T23:07:37.668Z,12.50
2022-12-20T23:11:43.290Z,14.85
2022-12-20T23:15:40.496Z,16.88
2022-12-20T23:23:04.353Z,10.00
2022-12-20T23:26:46.339Z,12.68
2022-12-20T23:30:28.341Z,10.13
2022-12-20T23:34:10.324Z,13.10
2022-12-20T23:37:52.671Z,9.90
2022-12-20T23:41:34.746Z,20.60
2022-12-20T23:45:16.722Z,12.68
2022-12-20T23:48:58.749Z,12.68
2022-12-20T23:52:40.739Z,12.57
2022-12-20T23:56:23.057Z,9.00
